Time;durP1;ratioP1;P1;durP2;ratioP2;P2;SDS_P1;SDS_P2;PMS_P1;PMS_P2;Temp;Humidity;BMP_temperature;BMP_pressure;BME280_temperature;BME280_humidity;BME280_pressure;Samples;Min_cycle;Max_cycle;Signal;HPM_P1;HPM_P2
2023/05/19 00:02:04;;;;;;;18.37;5.30;;;9.00;99.90;;;;;;5045704;28;20994;-73
2023/05/19 00:04:32;;;;;;;6.10;4.70;;;9.00;99.90;;;;;;5054462;28;20449;-73
2023/05/19 00:07:00;;;;;;;8.33;3.70;;;9.00;99.90;;;;;;5051310;28;20989;-74
2023/05/19 00:09:28;;;;;;;8.93;4.00;;;8.90;99.90;;;;;;5050256;28;20942;-74
2023/05/19 00:11:55;;;;;;;5.90;4.03;;;8.90;99.90;;;;;;5043609;28;20535;-74
2023/05/19 00:14:22;;;;;;;6.87;3.27;;;8.90;99.90;;;;;;5040800;28;20493;-73
2023/05/19 00:16:49;;;;;;;9.83;3.57;;;8.90;99.90;;;;;;5047742;28;20450;-74
2023/05/19 00:19:17;;;;;;;8.67;4.93;;;8.90;99.90;;;;;;5049286;28;20465;-73
2023/05/19 00:21:44;;;;;;;5.63;3.20;;;8.90;99.90;;;;;;5047833;28;20483;-73
2023/05/19 00:24:12;;;;;;;7.77;3.47;;;8.90;99.90;;;;;;5048500;28;20449;-74
2023/05/19 00:26:38;;;;;;;6.00;3.27;;;8.90;99.90;;;;;;5035059;28;20522;-74
2023/05/19 00:29:05;;;;;;;11.20;3.40;;;8.80;99.90;;;;;;5042797;28;20561;-74
2023/05/19 00:31:32;;;;;;;9.87;3.80;;;8.80;99.90;;;;;;5046096;28;21054;-74
2023/05/19 00:33:59;;;;;;;6.87;3.40;;;8.80;99.90;;;;;;5042242;28;20446;-73
2023/05/19 00:36:26;;;;;;;5.90;3.17;;;8.80;99.90;;;;;;5040364;28;20508;-73
2023/05/19 00:38:52;;;;;;;6.00;3.30;;;8.70;99.90;;;;;;5041694;28;20516;-74
2023/05/19 00:41:21;;;;;;;6.17;3.60;;;8.70;99.90;;;;;;5046201;28;21044;-73
2023/05/19 00:43:48;;;;;;;8.87;3.40;;;8.70;99.90;;;;;;5046012;28;20878;-74
2023/05/19 00:46:14;;;;;;;11.97;3.80;;;8.70;99.90;;;;;;5045705;28;20453;-73
2023/05/19 00:48:43;;;;;;;7.53;3.27;;;8.70;99.90;;;;;;5044198;28;20457;-73
2023/05/19 00:51:13;;;;;;;5.83;3.67;;;8.70;99.90;;;;;;5043560;28;20558;-73
2023/05/19 00:53:41;;;;;;;5.30;3.23;;;8.70;99.90;;;;;;5046756;28;20457;-73
2023/05/19 00:56:07;;;;;;;9.50;3.80;;;8.70;99.90;;;;;;5043010;28;20492;-74
2023/05/19 00:58:38;;;;;;;12.03;3.50;;;8.60;99.90;;;;;;5040922;28;20465;-73
2023/05/19 01:01:06;;;;;;;6.90;3.77;;;8.60;99.90;;;;;;5036354;28;20821;-74
2023/05/19 01:03:34;;;;;;;5.87;3.70;;;8.50;99.90;;;;;;5047133;28;20536;-74
2023/05/19 01:06:03;;;;;;;10.93;3.20;;;8.60;99.90;;;;;;5047624;28;20832;-73
2023/05/19 01:08:31;;;;;;;7.50;3.67;;;8.50;99.90;;;;;;5041057;28;20954;-73
2023/05/19 01:10:58;;;;;;;7.57;3.80;;;8.50;99.90;;;;;;5036353;28;20999;-73
2023/05/19 01:13:25;;;;;;;8.87;3.80;;;8.50;99.90;;;;;;5041009;28;20445;-73
2023/05/19 01:16:00;;;;;;;8.83;3.50;;;8.40;99.90;;;;;;5048293;28;20551;-74
2023/05/19 01:18:38;;;;;;;3.93;3.17;;;8.40;99.90;;;;;;5041401;28;20460;-73
2023/05/19 01:21:35;;;;;;;4.77;3.17;;;8.40;99.90;;;;;;5042478;28;20516;-73
2023/05/19 01:24:11;;;;;;;5.17;3.30;;;8.30;99.90;;;;;;5046027;28;20457;-74
2023/05/19 01:27:23;;;;;;;8.27;3.70;;;8.30;99.90;;;;;;5048806;28;20452;-73
2023/05/19 01:30:18;;;;;;;12.93;4.17;;;8.30;99.90;;;;;;5044966;28;21024;-74
2023/05/19 01:32:46;;;;;;;8.97;4.17;;;8.30;99.90;;;;;;5037363;28;20456;-73
2023/05/19 01:35:16;;;;;;;5.87;3.60;;;8.20;99.90;;;;;;5035976;28;20485;-73
2023/05/19 01:37:44;;;;;;;6.33;2.97;;;8.20;99.90;;;;;;5046740;28;20462;-74
2023/05/19 01:40:11;;;;;;;11.80;3.23;;;8.20;99.90;;;;;;5045880;28;20493;-73
2023/05/19 01:42:38;;;;;;;13.33;3.40;;;8.20;99.90;;;;;;5042453;28;21192;-73
2023/05/19 01:45:09;;;;;;;9.90;3.40;;;8.20;99.90;;;;;;5041745;28;20946;-73
2023/05/19 01:47:43;;;;;;;6.03;3.10;;;8.20;99.90;;;;;;5033854;28;20454;-73
2023/05/19 01:50:10;;;;;;;5.50;3.40;;;8.20;99.90;;;;;;5048800;28;20457;-73
2023/05/19 01:52:37;;;;;;;8.93;3.73;;;8.20;99.90;;;;;;5043960;28;20527;-73
2023/05/19 01:55:05;;;;;;;7.50;3.20;;;8.20;99.90;;;;;;5047599;28;20481;-73
2023/05/19 01:57:39;;;;;;;14.63;3.50;;;8.10;99.90;;;;;;5042761;28;20999;-73
2023/05/19 02:00:14;;;;;;;6.63;3.33;;;8.20;99.90;;;;;;5039920;28;20452;-73
2023/05/19 02:02:55;;;;;;;7.13;3.30;;;8.20;99.90;;;;;;5040790;28;20460;-73
2023/05/19 02:05:28;;;;;;;11.83;3.33;;;8.10;99.90;;;;;;5046408;28;20610;-73
2023/05/19 02:08:02;;;;;;;14.20;4.20;;;8.10;99.90;;;;;;5041439;28;20488;-73
2023/05/19 02:10:30;;;;;;;8.73;3.10;;;8.10;99.90;;;;;;5033872;28;20454;-73
2023/05/19 02:13:04;;;;;;;10.37;3.70;;;8.10;99.90;;;;;;5045279;28;20549;-73
2023/05/19 02:15:37;;;;;;;6.67;3.03;;;8.10;99.90;;;;;;5047221;28;20488;-73
2023/05/19 02:18:06;;;;;;;7.27;3.03;;;8.10;99.90;;;;;;5045476;28;20453;-74
2023/05/19 02:20:32;;;;;;;6.87;4.70;;;8.10;99.90;;;;;;5042388;28;20508;-73
2023/05/19 02:22:59;;;;;;;5.40;3.10;;;8.10;99.90;;;;;;5032202;28;20458;-73
2023/05/19 02:25:26;;;;;;;3.60;3.30;;;8.10;99.90;;;;;;5047423;28;20556;-73
2023/05/19 02:27:52;;;;;;;6.30;3.80;;;8.10;99.90;;;;;;5042422;28;20977;-73
2023/05/19 02:30:19;;;;;;;6.30;3.50;;;8.00;99.90;;;;;;5041644;28;21088;-73
2023/05/19 02:32:46;;;;;;;9.10;4.20;;;8.00;99.90;;;;;;5038934;28;20449;-73
2023/05/19 02:35:14;;;;;;;9.50;3.70;;;8.00;99.90;;;;;;5035897;28;20482;-73
2023/05/19 02:37:41;;;;;;;7.83;3.87;;;8.00;99.90;;;;;;5045154;28;20877;-73
2023/05/19 02:40:08;;;;;;;13.30;3.77;;;8.00;99.90;;;;;;5039898;28;20529;-73
2023/05/19 02:42:35;;;;;;;9.53;3.60;;;8.00;99.90;;;;;;5037497;28;21047;-73
2023/05/19 02:45:02;;;;;;;8.63;3.63;;;7.90;99.90;;;;;;5036028;28;20492;-73
2023/05/19 02:47:28;;;;;;;5.17;3.70;;;7.90;99.90;;;;;;5048268;28;21007;-73
2023/05/19 02:49:55;;;;;;;9.80;3.30;;;7.90;99.90;;;;;;5044905;28;20454;-73
2023/05/19 02:52:23;;;;;;;7.87;3.23;;;7.90;99.90;;;;;;5039957;28;20527;-73
2023/05/19 02:54:50;;;;;;;5.00;3.20;;;7.80;99.90;;;;;;5038601;28;20457;-73
2023/05/19 02:57:16;;;;;;;4.63;3.40;;;7.80;99.90;;;;;;5037543;28;20950;-73
2023/05/19 02:59:43;;;;;;;9.10;3.80;;;7.80;99.90;;;;;;5045265;28;20514;-73
2023/05/19 03:02:10;;;;;;;7.87;3.80;;;7.80;99.90;;;;;;5040617;28;20466;-73
2023/05/19 03:04:41;;;;;;;8.50;3.30;;;7.80;99.90;;;;;;5037750;28;20469;-73
2023/05/19 03:07:09;;;;;;;9.67;4.00;;;7.70;99.90;;;;;;5031838;28;20469;-73
2023/05/19 03:09:37;;;;;;;4.47;3.20;;;7.70;99.90;;;;;;5046105;28;20539;-73
2023/05/19 03:12:05;;;;;;;12.33;3.90;;;7.70;99.90;;;;;;5042667;28;20465;-73
2023/05/19 03:14:32;;;;;;;7.10;3.63;;;7.70;99.90;;;;;;5040401;28;21024;-73
2023/05/19 03:17:00;;;;;;;7.20;3.57;;;7.60;99.90;;;;;;5047025;28;20489;-73
2023/05/19 03:19:26;;;;;;;8.00;3.50;;;7.70;99.90;;;;;;5034059;28;20827;-73
2023/05/19 03:21:55;;;;;;;9.90;4.10;;;7.70;99.90;;;;;;5044144;28;20485;-73
2023/05/19 03:24:21;;;;;;;4.70;3.60;;;7.60;99.90;;;;;;5043191;28;20561;-73
2023/05/19 03:26:50;;;;;;;13.60;3.90;;;7.60;99.90;;;;;;5037153;28;20445;-73
2023/05/19 03:29:16;;;;;;;9.20;3.70;;;7.60;99.90;;;;;;5043786;28;20449;-73
2023/05/19 03:31:43;;;;;;;7.60;4.13;;;7.60;99.90;;;;;;5043324;28;20473;-73
2023/05/19 03:34:10;;;;;;;5.87;3.40;;;7.60;99.90;;;;;;5044092;28;20516;-73
2023/05/19 03:36:38;;;;;;;4.70;3.20;;;7.60;99.90;;;;;;5040741;28;20538;-73
2023/05/19 03:39:04;;;;;;;8.60;3.80;;;7.50;99.90;;;;;;5038242;28;20519;-73
2023/05/19 03:41:31;;;;;;;4.90;3.47;;;7.50;99.90;;;;;;5040873;28;20523;-73
2023/05/19 03:43:59;;;;;;;15.77;5.13;;;7.50;99.90;;;;;;5044761;28;20455;-73
2023/05/19 03:46:26;;;;;;;20.33;4.40;;;7.50;99.90;;;;;;5045216;28;20869;-73
2023/05/19 03:48:52;;;;;;;5.07;3.67;;;7.50;99.90;;;;;;5036961;28;20511;-73
2023/05/19 03:51:19;;;;;;;9.33;3.97;;;7.50;99.90;;;;;;5033020;28;20470;-73
2023/05/19 03:53:45;;;;;;;10.27;3.63;;;7.50;99.90;;;;;;5037659;28;20457;-73
2023/05/19 03:56:13;;;;;;;8.33;3.70;;;7.50;99.90;;;;;;5044008;28;21072;-73
2023/05/19 03:58:42;;;;;;;7.47;3.63;;;7.40;99.90;;;;;;5039967;28;20897;-73
2023/05/19 04:01:10;;;;;;;7.63;4.20;;;7.40;99.90;;;;;;5037713;28;21032;-73
2023/05/19 04:03:37;;;;;;;9.43;3.70;;;7.40;99.90;;;;;;5041346;28;20461;-72
2023/05/19 04:06:03;;;;;;;6.23;3.80;;;7.50;99.90;;;;;;5049840;28;20859;-73
2023/05/19 04:08:30;;;;;;;6.47;3.73;;;7.50;99.90;;;;;;5048905;28;20449;-73
2023/05/19 04:10:57;;;;;;;8.10;3.43;;;7.50;99.90;;;;;;5042639;28;20470;-73
2023/05/19 04:13:24;;;;;;;9.63;4.00;;;7.50;99.90;;;;;;5039840;28;21051;-73
2023/05/19 04:15:50;;;;;;;6.07;3.90;;;7.50;99.90;;;;;;5040462;28;20550;-73
2023/05/19 04:18:18;;;;;;;10.30;4.10;;;7.60;99.90;;;;;;5038981;28;20450;-73
2023/05/19 04:20:45;;;;;;;5.63;3.87;;;7.60;99.90;;;;;;5047096;28;21046;-73
2023/05/19 04:23:11;;;;;;;16.40;4.37;;;7.60;99.90;;;;;;5045996;28;20450;-73
2023/05/19 04:25:39;;;;;;;12.43;3.43;;;7.60;99.90;;;;;;5042007;28;20949;-73
2023/05/19 04:28:06;;;;;;;10.90;3.90;;;7.60;99.90;;;;;;5042655;28;21022;-73
2023/05/19 04:30:33;;;;;;;12.43;4.10;;;7.60;99.90;;;;;;5047162;28;20522;-73
2023/05/19 04:32:59;;;;;;;5.93;3.80;;;7.70;99.90;;;;;;5048733;28;20449;-73
2023/05/19 04:35:27;;;;;;;5.67;3.33;;;7.80;99.90;;;;;;5043571;28;20446;-73
2023/05/19 04:37:54;;;;;;;8.33;3.97;;;7.80;99.90;;;;;;5044186;28;20450;-74
2023/05/19 04:40:22;;;;;;;19.00;5.47;;;7.80;99.90;;;;;;5033664;28;20458;-73
2023/05/19 04:42:51;;;;;;;10.50;4.17;;;7.90;99.90;;;;;;5047190;28;20469;-73
2023/05/19 04:45:17;;;;;;;9.77;4.40;;;8.00;99.90;;;;;;5047767;28;20540;-74
2023/05/19 04:47:45;;;;;;;8.60;3.57;;;8.00;99.90;;;;;;5046680;28;20535;-73
2023/05/19 04:50:13;;;;;;;10.80;4.50;;;8.00;99.90;;;;;;5035547;28;20537;-73
2023/05/19 04:52:41;;;;;;;6.53;4.20;;;8.10;99.90;;;;;;5044588;28;20904;-73
2023/05/19 04:55:10;;;;;;;7.33;4.00;;;8.20;99.90;;;;;;5049324;28;20451;-73
2023/05/19 04:57:37;;;;;;;5.83;3.87;;;8.20;99.90;;;;;;5044795;28;20859;-74
2023/05/19 05:00:07;;;;;;;9.77;4.00;;;8.30;99.90;;;;;;5041912;28;20488;-72
2023/05/19 05:02:35;;;;;;;7.83;4.57;;;8.40;99.90;;;;;;5043074;28;20872;-70
2023/05/19 05:05:03;;;;;;;10.30;4.63;;;8.50;99.90;;;;;;5045231;28;20801;-70
2023/05/19 05:07:29;;;;;;;12.90;4.13;;;8.50;99.90;;;;;;5039218;28;20528;-71
2023/05/19 05:09:57;;;;;;;9.17;4.77;;;8.60;99.90;;;;;;5040647;28;20446;-72
2023/05/19 05:12:24;;;;;;;14.30;4.00;;;8.70;99.90;;;;;;5036169;28;20473;-71
2023/05/19 05:14:51;;;;;;;12.83;4.80;;;8.80;99.90;;;;;;5033216;28;20454;-71
2023/05/19 05:17:19;;;;;;;7.47;3.87;;;8.90;99.90;;;;;;5043569;28;21053;-71
2023/05/19 05:19:47;;;;;;;12.93;4.37;;;9.00;99.90;;;;;;5031764;28;20460;-71
2023/05/19 05:22:14;;;;;;;6.60;3.77;;;9.10;99.90;;;;;;5040503;28;20474;-70
2023/05/19 05:24:41;;;;;;;10.83;3.93;;;9.30;99.90;;;;;;5037928;28;20911;-69
2023/05/19 05:27:09;;;;;;;7.73;4.33;;;9.40;99.90;;;;;;5032016;28;20442;-69
2023/05/19 05:29:36;;;;;;;9.13;4.47;;;9.60;99.90;;;;;;5046728;28;20450;-70
2023/05/19 05:32:03;;;;;;;6.90;4.10;;;9.70;99.90;;;;;;5039338;28;20476;-69
2023/05/19 05:34:29;;;;;;;16.30;4.63;;;9.80;99.90;;;;;;5039360;28;20454;-70
2023/05/19 05:36:56;;;;;;;12.63;4.23;;;9.90;99.90;;;;;;5032964;28;20485;-69
2023/05/19 05:39:23;;;;;;;9.47;4.10;;;10.00;99.90;;;;;;5031703;28;20873;-70
2023/05/19 05:41:49;;;;;;;4.40;3.43;;;10.10;99.90;;;;;;5040990;28;20539;-70
2023/05/19 05:44:17;;;;;;;12.20;4.53;;;10.20;99.90;;;;;;5040335;28;20877;-69
2023/05/19 05:46:44;;;;;;;7.53;3.70;;;10.30;99.90;;;;;;5039983;28;20455;-69
2023/05/19 05:49:12;;;;;;;13.80;3.93;;;10.40;99.90;;;;;;5037184;28;20761;-70
2023/05/19 05:51:39;;;;;;;9.90;3.93;;;10.50;99.90;;;;;;5031749;28;20466;-70
2023/05/19 05:54:07;;;;;;;7.90;4.13;;;10.60;99.90;;;;;;5031557;28;20458;-69
2023/05/19 05:56:35;;;;;;;8.57;3.60;;;10.80;99.90;;;;;;5032502;28;20485;-70
2023/05/19 05:59:03;;;;;;;9.27;3.83;;;11.00;99.90;;;;;;5030584;28;20946;-69
2023/05/19 06:01:31;;;;;;;15.53;4.23;;;11.10;99.90;;;;;;5031681;28;20513;-70
2023/05/19 06:03:57;;;;;;;13.07;4.87;;;11.30;99.90;;;;;;5037259;28;20523;-69
2023/05/19 06:06:24;;;;;;;12.60;5.00;;;11.50;99.90;;;;;;5031902;28;20997;-69
2023/05/19 06:08:50;;;;;;;8.43;4.30;;;11.70;99.90;;;;;;5031092;28;20465;-70
2023/05/19 06:11:18;;;;;;;17.33;4.93;;;11.80;99.90;;;;;;5043430;28;20523;-69
2023/05/19 06:13:45;;;;;;;9.30;4.07;;;11.90;99.90;;;;;;5034190;28;20549;-70
2023/05/19 06:16:11;;;;;;;9.20;4.03;;;12.00;99.90;;;;;;5033186;28;20916;-70
2023/05/19 06:18:39;;;;;;;7.87;3.90;;;12.10;99.90;;;;;;5046820;28;20457;-71
2023/05/19 06:21:08;;;;;;;6.97;3.50;;;12.20;99.90;;;;;;5029818;28;20468;-70
2023/05/19 06:23:35;;;;;;;9.30;4.10;;;12.20;99.90;;;;;;5035594;28;20450;-70
2023/05/19 06:26:02;;;;;;;8.73;3.90;;;12.30;99.90;;;;;;5031294;28;21225;-69
2023/05/19 06:28:28;;;;;;;8.37;4.47;;;12.50;99.90;;;;;;5031027;28;20699;-69
2023/05/19 06:30:55;;;;;;;10.43;4.00;;;12.60;99.90;;;;;;5030701;28;20527;-70
2023/05/19 06:33:21;;;;;;;11.00;3.77;;;12.90;99.90;;;;;;5043324;28;20458;-70
2023/05/19 06:35:50;;;;;;;7.63;3.93;;;13.10;99.90;;;;;;5037078;28;20877;-70
2023/05/19 06:38:16;;;;;;;7.17;3.67;;;13.30;99.90;;;;;;5030330;28;20485;-70
2023/05/19 06:40:43;;;;;;;6.97;4.33;;;13.40;99.90;;;;;;5030062;28;20888;-68
2023/05/19 06:43:09;;;;;;;8.17;4.03;;;13.60;99.90;;;;;;5030797;28;20446;-70
2023/05/19 06:45:36;;;;;;;6.60;4.00;;;13.70;99.90;;;;;;5034622;28;20460;-70
2023/05/19 06:48:03;;;;;;;5.80;3.57;;;13.90;99.90;;;;;;5030282;28;20445;-70
2023/05/19 06:50:30;;;;;;;11.73;4.00;;;14.00;99.90;;;;;;5044399;28;20450;-70
2023/05/19 06:52:58;;;;;;;8.37;3.70;;;14.20;99.90;;;;;;5032096;28;20510;-70
2023/05/19 06:55:25;;;;;;;8.60;3.53;;;14.40;99.90;;;;;;5039551;28;20446;-70
2023/05/19 06:57:51;;;;;;;10.40;3.70;;;14.40;99.90;;;;;;5032390;28;20481;-70
2023/05/19 07:00:19;;;;;;;4.60;3.20;;;14.50;99.90;;;;;;5030621;28;20449;-70
2023/05/19 07:02:45;;;;;;;8.60;3.57;;;14.70;99.90;;;;;;5046715;28;20476;-70
2023/05/19 07:05:12;;;;;;;11.10;2.90;;;14.90;99.90;;;;;;5038450;28;21281;-71
2023/05/19 07:07:39;;;;;;;5.77;3.20;;;15.00;99.90;;;;;;5040634;28;20437;-70
2023/05/19 07:10:08;;;;;;;7.20;3.70;;;15.20;99.90;;;;;;5061982;28;20504;-69
2023/05/19 07:12:34;;;;;;;8.43;3.50;;;15.50;99.90;;;;;;5029776;28;20508;-69
2023/05/19 07:15:01;;;;;;;7.20;3.30;;;15.80;99.90;;;;;;5030279;28;20507;-70
2023/05/19 07:17:27;;;;;;;9.43;3.03;;;16.10;99.90;;;;;;5046515;28;20489;-69
2023/05/19 07:19:54;;;;;;;7.80;3.23;;;16.30;99.90;;;;;;5031333;28;20514;-69
2023/05/19 07:22:21;;;;;;;7.40;2.67;;;16.20;99.90;;;;;;5037637;28;20469;-69
2023/05/19 07:24:47;;;;;;;9.10;3.30;;;16.10;99.90;;;;;;5036245;28;20460;-69
2023/05/19 07:27:15;;;;;;;6.50;3.03;;;16.00;99.90;;;;;;5033190;28;20827;-69
2023/05/19 07:29:42;;;;;;;8.50;3.43;;;16.10;99.90;;;;;;5033530;28;20529;-70
2023/05/19 07:32:08;;;;;;;5.80;2.97;;;16.30;99.90;;;;;;5035560;28;20531;-70
2023/05/19 07:34:35;;;;;;;6.87;3.20;;;16.50;99.90;;;;;;5029883;28;20450;-69
2023/05/19 07:37:02;;;;;;;8.90;3.33;;;16.70;99.90;;;;;;5039648;28;20485;-70
2023/05/19 07:39:31;;;;;;;9.07;2.90;;;16.70;99.90;;;;;;5032886;28;20540;-69
2023/05/19 07:41:58;;;;;;;12.20;2.87;;;16.70;99.90;;;;;;5032052;28;20470;-70
2023/05/19 07:44:26;;;;;;;6.03;2.60;;;16.60;99.90;;;;;;5038095;28;20925;-69
2023/05/19 07:46:53;;;;;;;10.07;2.97;;;16.50;99.90;;;;;;5035661;28;20954;-69
2023/05/19 07:49:20;;;;;;;9.93;3.20;;;16.40;99.90;;;;;;5048289;28;20446;-69
2023/05/19 07:51:47;;;;;;;8.17;2.90;;;16.50;99.90;;;;;;5040226;28;20981;-70
2023/05/19 07:54:13;;;;;;;7.73;3.00;;;16.60;99.90;;;;;;5032779;28;20416;-69
2023/05/19 07:56:40;;;;;;;3.70;3.10;;;16.80;99.90;;;;;;5038534;28;20566;-70
2023/05/19 07:59:07;;;;;;;7.63;3.20;;;17.00;99.90;;;;;;5032432;28;20538;-70
2023/05/19 08:01:35;;;;;;;5.40;2.97;;;17.30;99.90;;;;;;5032663;28;20443;-69
2023/05/19 08:04:02;;;;;;;4.63;2.90;;;17.50;99.90;;;;;;5038877;28;20991;-70
2023/05/19 08:06:30;;;;;;;5.57;3.13;;;17.60;99.90;;;;;;5046836;28;20430;-70
2023/05/19 08:08:57;;;;;;;8.20;3.57;;;17.70;99.90;;;;;;5033652;28;20442;-70
2023/05/19 08:11:24;;;;;;;5.70;2.50;;;17.80;99.90;;;;;;5039224;28;20473;-70
2023/05/19 08:13:51;;;;;;;9.73;3.20;;;17.70;99.90;;;;;;5033023;28;20428;-70
2023/05/19 08:16:17;;;;;;;9.80;2.97;;;17.60;99.90;;;;;;5040619;28;20936;-69
2023/05/19 08:18:45;;;;;;;8.30;2.83;;;17.70;99.90;;;;;;5043456;28;20919;-69
2023/05/19 08:21:12;;;;;;;7.80;3.03;;;17.90;99.90;;;;;;5032598;28;20502;-69
2023/05/19 08:23:38;;;;;;;10.80;2.80;;;17.90;99.90;;;;;;5038863;28;20448;-70
2023/05/19 08:26:05;;;;;;;3.47;2.70;;;17.80;99.90;;;;;;5033373;28;20823;-69
2023/05/19 08:28:32;;;;;;;7.17;2.80;;;17.80;99.90;;;;;;5032361;28;20445;-69
2023/05/19 08:30:58;;;;;;;7.80;2.63;;;17.70;99.90;;;;;;5032634;28;20586;-70
2023/05/19 08:33:25;;;;;;;5.60;2.63;;;17.80;99.90;;;;;;5036894;28;20424;-70
2023/05/19 08:35:54;;;;;;;6.23;2.67;;;18.10;99.90;;;;;;5037160;28;20422;-70
2023/05/19 08:38:20;;;;;;;5.07;2.70;;;18.50;99.90;;;;;;5036689;28;20810;-70
2023/05/19 08:40:47;;;;;;;8.60;3.40;;;18.50;99.90;;;;;;5035926;28;20465;-69
2023/05/19 08:43:14;;;;;;;5.30;2.60;;;18.60;99.90;;;;;;5040386;28;20427;-69
2023/05/19 08:45:45;;;;;;;4.60;2.73;;;18.70;99.90;;;;;;5043443;28;20432;-69
2023/05/19 08:48:13;;;;;;;11.13;3.20;;;19.00;99.90;;;;;;5034508;28;21149;-69
2023/05/19 08:50:42;;;;;;;6.63;3.17;;;19.30;99.90;;;;;;5043498;28;20698;-69
2023/05/19 08:53:14;;;;;;;7.33;3.30;;;19.60;99.90;;;;;;5032100;28;20460;-69
2023/05/19 08:55:50;;;;;;;6.13;2.70;;;19.60;99.90;;;;;;5039822;28;20452;-69
2023/05/19 08:58:19;;;;;;;4.63;2.87;;;19.50;99.90;;;;;;5043821;28;20462;-70
2023/05/19 09:00:46;;;;;;;6.70;2.50;;;19.40;99.90;;;;;;5036995;28;20489;-70
2023/05/19 09:03:14;;;;;;;4.40;2.60;;;19.60;99.90;;;;;;5039910;28;20453;-70
2023/05/19 09:05:41;;;;;;;4.90;2.90;;;19.60;99.90;;;;;;5038721;28;20468;-70
2023/05/19 09:08:09;;;;;;;6.63;2.70;;;19.80;99.90;;;;;;5031354;28;20454;-71
2023/05/19 09:10:36;;;;;;;8.77;2.43;;;19.80;99.90;;;;;;5031910;28;20443;-71
2023/05/19 09:13:04;;;;;;;7.40;3.20;;;19.80;99.90;;;;;;5043864;28;20427;-70
2023/05/19 09:15:32;;;;;;;5.70;2.50;;;19.70;99.90;;;;;;5038438;28;20474;-70
2023/05/19 09:18:09;;;;;;;8.10;3.00;;;19.80;99.90;;;;;;5041758;28;20612;-70
2023/05/19 09:20:40;;;;;;;11.23;3.47;;;19.70;99.90;;;;;;5031033;28;20895;-69
2023/05/19 09:23:07;;;;;;;6.73;2.90;;;19.70;99.90;;;;;;5033245;28;20496;-71
2023/05/19 09:25:35;;;;;;;8.57;2.87;;;19.90;99.90;;;;;;5037477;28;20426;-70
2023/05/19 09:28:02;;;;;;;7.37;2.53;;;19.80;99.90;;;;;;5032732;28;20416;-69
2023/05/19 09:30:28;;;;;;;5.33;2.60;;;19.70;99.90;;;;;;5035324;28;20456;-69
2023/05/19 09:32:55;;;;;;;9.10;2.63;;;19.80;99.90;;;;;;5044817;28;20510;-69
2023/05/19 09:35:21;;;;;;;4.57;2.40;;;19.60;99.90;;;;;;5038767;28;20848;-69
2023/05/19 09:37:48;;;;;;;8.70;2.97;;;19.70;99.90;;;;;;5034155;28;20456;-70
2023/05/19 09:40:15;;;;;;;5.03;2.83;;;19.80;99.90;;;;;;5039131;28;20507;-70
2023/05/19 09:42:44;;;;;;;3.93;2.60;;;19.90;99.90;;;;;;5031348;28;21020;-70
2023/05/19 09:45:11;;;;;;;5.30;2.53;;;20.00;99.90;;;;;;5043307;28;20467;-70
2023/05/19 09:47:38;;;;;;;5.27;3.10;;;20.10;99.90;;;;;;5031287;28;20451;-70
2023/05/19 09:50:07;;;;;;;8.83;2.77;;;20.30;99.90;;;;;;5030876;28;20977;-71
2023/05/19 09:52:37;;;;;;;7.60;2.77;;;20.50;99.90;;;;;;5030770;28;20469;-69
2023/05/19 09:55:05;;;;;;;5.43;3.47;;;20.40;99.90;;;;;;5030974;28;20481;-69
2023/05/19 09:57:36;;;;;;;7.90;2.43;;;20.60;99.90;;;;;;5039059;28;20488;-68
2023/05/19 10:00:12;;;;;;;8.27;3.03;;;20.90;99.90;;;;;;5032227;28;20457;-68
2023/05/19 10:02:42;;;;;;;6.97;2.90;;;21.30;99.90;;;;;;5036119;28;20469;-71
2023/05/19 10:05:10;;;;;;;5.47;2.60;;;21.70;99.90;;;;;;5030435;28;20480;-68
2023/05/19 10:07:39;;;;;;;7.47;3.40;;;21.80;99.90;;;;;;5037067;28;20449;-68
2023/05/19 10:10:11;;;;;;;4.47;2.87;;;21.70;99.90;;;;;;5040179;28;20541;-67
2023/05/19 10:12:38;;;;;;;6.50;2.97;;;21.50;99.90;;;;;;5032357;28;20488;-69
2023/05/19 10:15:09;;;;;;;7.73;3.37;;;21.40;99.90;;;;;;5030551;28;20449;-68
2023/05/19 10:17:36;;;;;;;16.97;8.07;;;21.30;99.90;;;;;;5044969;28;20488;-71
2023/05/19 10:20:05;;;;;;;10.87;5.80;;;21.60;99.90;;;;;;5033863;28;20461;-69
2023/05/19 10:22:32;;;;;;;6.93;4.00;;;21.70;99.90;;;;;;5036660;28;20473;-68
2023/05/19 10:24:59;;;;;;;3.43;2.80;;;21.90;99.90;;;;;;5038494;28;21146;-68
2023/05/19 10:27:27;;;;;;;4.80;2.83;;;22.10;99.90;;;;;;5037611;28;20449;-69
2023/05/19 10:29:57;;;;;;;7.80;2.77;;;22.30;99.90;;;;;;5039994;28;20791;-69
2023/05/19 10:32:28;;;;;;;7.67;5.00;;;22.20;99.90;;;;;;5041725;28;20564;-69
2023/05/19 10:35:14;;;;;;;11.40;4.90;;;22.30;99.90;;;;;;5033179;28;20464;-69
2023/05/19 10:37:46;;;;;;;9.10;3.20;;;22.20;99.90;;;;;;5035359;28;20488;-69
2023/05/19 10:40:20;;;;;;;14.90;5.87;;;22.80;99.90;;;;;;5029722;28;21072;-69
2023/05/19 10:42:57;;;;;;;3.97;3.23;;;22.70;99.90;;;;;;5030326;28;20483;-69
2023/05/19 10:45:28;;;;;;;10.97;5.00;;;22.50;99.90;;;;;;5033676;28;20452;-69
2023/05/19 10:47:56;;;;;;;11.37;4.97;;;22.30;99.90;;;;;;5033087;28;20449;-69
2023/05/19 10:50:23;;;;;;;7.90;3.23;;;22.30;99.90;;;;;;5029976;28;20507;-69
2023/05/19 10:52:54;;;;;;;7.13;3.03;;;22.60;99.90;;;;;;5038253;28;20871;-69
2023/05/19 10:55:45;;;;;;;6.40;3.10;;;23.00;99.90;;;;;;5040666;28;21168;-69
2023/05/19 10:58:12;;;;;;;4.03;3.53;;;23.20;99.90;;;;;;5031165;28;20489;-69
2023/05/19 11:00:40;;;;;;;7.53;4.93;;;23.40;99.90;;;;;;5030349;28;20892;-69
2023/05/19 11:03:16;;;;;;;7.77;4.60;;;23.50;99.90;;;;;;5033554;28;20571;-69
2023/05/19 11:05:44;;;;;;;5.57;3.10;;;23.20;99.90;;;;;;5040769;28;20554;-69
2023/05/19 11:08:12;;;;;;;7.20;2.70;;;23.30;99.90;;;;;;5031153;28;20462;-70
2023/05/19 11:10:39;;;;;;;6.27;2.50;;;23.30;99.90;;;;;;5029399;28;20473;-69
2023/05/19 11:13:05;;;;;;;7.93;2.70;;;23.30;99.90;;;;;;5029306;28;20954;-68
2023/05/19 11:15:35;;;;;;;8.87;2.67;;;23.20;99.90;;;;;;5043285;28;20865;-69
2023/05/19 11:18:04;;;;;;;3.53;2.50;;;23.10;99.60;;;;;;5040902;28;20484;-69
2023/05/19 11:20:33;;;;;;;7.90;3.03;;;23.00;99.90;;;;;;5034676;28;20452;-69
2023/05/19 11:23:07;;;;;;;6.40;2.63;;;23.00;99.90;;;;;;5033383;28;20519;-69
2023/05/19 11:25:45;;;;;;;5.80;2.30;;;23.30;99.90;;;;;;5029929;28;20453;-69
2023/05/19 11:28:13;;;;;;;7.40;2.90;;;23.50;99.90;;;;;;5032206;28;20463;-69
2023/05/19 11:30:42;;;;;;;4.80;2.50;;;23.50;99.90;;;;;;5034166;28;20497;-69
2023/05/19 11:33:10;;;;;;;15.33;3.00;;;23.50;99.90;;;;;;5037177;28;20449;-69
2023/05/19 11:35:38;;;;;;;4.53;2.57;;;23.80;99.90;;;;;;5030034;28;21138;-69
2023/05/19 11:38:06;;;;;;;7.90;2.70;;;24.00;99.90;;;;;;5029538;28;20856;-69
2023/05/19 11:40:33;;;;;;;4.80;2.80;;;24.10;99.90;;;;;;5037395;28;21151;-69
2023/05/19 11:43:01;;;;;;;5.67;2.60;;;23.60;98.40;;;;;;5030146;28;20449;-69
2023/05/19 11:45:28;;;;;;;5.77;2.50;;;23.30;99.30;;;;;;5030114;28;20456;-68
2023/05/19 11:47:56;;;;;;;6.60;2.50;;;23.30;99.90;;;;;;5037761;28;20502;-70
2023/05/19 11:50:24;;;;;;;5.83;2.57;;;23.80;99.90;;;;;;5044419;28;20456;-69
2023/05/19 11:52:52;;;;;;;7.50;2.77;;;24.10;99.90;;;;;;5029873;28;21163;-69
2023/05/19 11:55:20;;;;;;;8.90;3.10;;;23.90;99.90;;;;;;5029752;28;20774;-69
2023/05/19 11:58:00;;;;;;;7.90;3.30;;;24.00;99.90;;;;;;5037360;28;20961;-69
2023/05/19 12:00:27;;;;;;;3.97;2.23;;;23.90;99.10;;;;;;5029645;28;20536;-69
2023/05/19 12:02:54;;;;;;;7.63;2.60;;;23.80;99.50;;;;;;5029941;28;20502;-69
2023/05/19 12:05:22;;;;;;;4.90;2.90;;;23.90;99.90;;;;;;5029490;28;20460;-70
2023/05/19 12:07:50;;;;;;;5.30;2.70;;;23.90;98.70;;;;;;5036114;28;20452;-69
2023/05/19 12:10:21;;;;;;;10.03;2.77;;;23.90;99.90;;;;;;5032928;28;20457;-69
2023/05/19 12:12:48;;;;;;;7.13;2.87;;;23.70;99.00;;;;;;5041631;28;20498;-69
2023/05/19 12:15:16;;;;;;;9.20;2.67;;;23.50;99.10;;;;;;5033358;28;20509;-68
2023/05/19 12:17:44;;;;;;;4.73;2.50;;;23.30;99.10;;;;;;5049653;28;20460;-70
2023/05/19 12:20:12;;;;;;;4.93;2.70;;;23.50;99.90;;;;;;5041147;28;20449;-69
2023/05/19 12:22:38;;;;;;;4.77;2.57;;;23.40;99.60;;;;;;5040395;28;20881;-68
2023/05/19 12:25:06;;;;;;;4.97;2.60;;;23.40;99.90;;;;;;5033388;28;20449;-69
2023/05/19 12:27:36;;;;;;;3.90;2.60;;;23.50;99.30;;;;;;5032636;28;20524;-69
2023/05/19 12:30:05;;;;;;;10.77;3.00;;;23.50;99.20;;;;;;5034358;28;20539;-69
2023/05/19 12:32:33;;;;;;;6.60;2.80;;;23.40;97.80;;;;;;5040206;28;20465;-69
2023/05/19 12:35:04;;;;;;;7.20;2.50;;;22.90;98.30;;;;;;5032133;28;20499;-68
2023/05/19 12:37:32;;;;;;;5.43;2.50;;;22.80;99.90;;;;;;5044057;28;20547;-68
2023/05/19 12:39:59;;;;;;;12.80;4.20;;;22.90;99.90;;;;;;5038012;28;20495;-69
2023/05/19 12:42:29;;;;;;;4.43;2.70;;;23.00;99.90;;;;;;5047414;28;20465;-68
2023/05/19 12:44:58;;;;;;;5.17;2.80;;;23.30;99.30;;;;;;5032369;28;20496;-69
2023/05/19 12:47:31;;;;;;;6.10;3.00;;;23.40;99.10;;;;;;5039889;28;20457;-70
2023/05/19 12:50:01;;;;;;;7.73;3.00;;;23.50;99.90;;;;;;5032061;28;20455;-69
2023/05/19 12:52:29;;;;;;;4.47;2.63;;;23.80;99.60;;;;;;5031942;28;20984;-69
2023/05/19 12:55:00;;;;;;;6.93;3.47;;;23.80;98.80;;;;;;5032744;28;20918;-70
2023/05/19 12:57:27;;;;;;;5.57;2.63;;;23.70;99.70;;;;;;5046432;28;20445;-70